Bookmark and Share
Track history (hours):
 

Aegean Navigator

Last reported at 2014-Apr-13 02:13 UTC. Time now 2014-Apr-17 09:38 UTC.
Position N 27°39' E 050°50'.

Length 274 m; draft 9 m.

Type: Ship. MMSI: 240634000.

NotesDate/timePositionNaut miles runAvg speedWind from/ knotsBaromVisibWave heightAir tempDewpointWater temp
2014-Apr-13 02:13N 27°39' E 050°50'812.2
2014-Apr-13 01:33N 27°35' E 050°57'1212.2
2014-Apr-13 00:32N 27°29' E 051°10'1512.1
2014-Apr-12 23:20N 27°25' E 051°25'1012.0
2014-Apr-12 22:33N 27°22' E 051°35'1211.3
2014-Apr-12 21:31N 27°18' E 051°48'1111.2
2014-Apr-12 20:33N 27°14' E 051°59'1111.0
2014-Apr-12 19:33N 27°07' E 052°09'1110.9
2014-Apr-12 18:33N 27°01' E 052°19'1010.5
2014-Apr-12 17:33N 26°56' E 052°29'1110.5
2014-Apr-12 16:31N 26°50' E 052°39'1010.5
2014-Apr-12 15:33N 26°45' E 052°49'3310.8
2014-Apr-12 12:30N 26°33' E 053°23'1110.8
2014-Apr-12 11:32N 26°31' E 053°35'1111.0
2014-Apr-12 10:32N 26°28' E 053°47'1111.4
2014-Apr-12 09:33N 26°26' E 053°59'1211.7
2014-Apr-12 08:33N 26°24' E 054°12'2014.2
2014-Apr-12 07:09N 26°21' E 054°34'712.1
2014-Apr-12 06:33N 26°21' E 054°42'1211.8
2014-Apr-12 05:33N 26°19' E 054°55'1211.8
2014-Apr-12 04:32N 26°18' E 055°08'1111.3
2014-Apr-12 03:33N 26°20' E 055°20'1111.0
2014-Apr-12 02:33N 26°23' E 055°32'1110.7
2014-Apr-12 01:33N 26°25' E 055°44'  

Dump ship's entire track history

sailing weather and tide predictions

Aegean Navigator — SWBI — position and weather